Time;durP1;ratioP1;P1;durP2;ratioP2;P2;SDS_P1;SDS_P2;PMS_P1;PMS_P2;Temp;Humidity;BMP_temperature;BMP_pressure;BME280_temperature;BME280_humidity;BME280_pressure;Samples;Min_cycle;Max_cycle;Signal;HPM_P1;HPM_P2
2023/02/21 02:15:21;;;;;;;3.13;2.70;;;9.40;99.90;;;;;;6184944;23;20017;-73
2023/02/21 02:17:49;;;;;;;3.20;2.80;;;9.40;99.90;;;;;;6019163;23;20019;-73
2023/02/21 02:20:39;;;;;;;2.80;2.58;;;9.40;99.90;;;;;;6066949;23;20015;-73
2023/02/21 02:23:08;;;;;;;;;;;9.50;99.90;;;;;;6067384;23;20030;-73
2023/02/21 02:26:06;;;;;;;3.40;2.78;;;9.30;99.90;;;;;;6042634;23;20025;-73
2023/02/21 02:29:05;;;;;;;3.30;3.00;;;9.30;99.90;;;;;;6023618;23;20030;-73
2023/02/21 02:31:58;;;;;;;2.80;2.40;;;9.40;99.90;;;;;;6066351;23;20021;-73
2023/02/21 02:35:08;;;;;;;3.10;2.90;;;9.40;99.90;;;;;;6066421;23;20082;-73
2023/02/21 02:38:08;;;;;;;2.90;2.57;;;9.40;99.90;;;;;;6004372;23;20092;-74
2023/02/21 02:41:16;;;;;;;4.07;2.83;;;9.40;99.90;;;;;;6066474;23;20238;-74
2023/02/21 02:43:49;;;;;;;4.05;3.28;;;9.40;99.90;;;;;;6042403;23;20018;-74
2023/02/21 02:46:27;;;;;;;3.45;3.15;;;9.40;99.90;;;;;;6018812;23;20022;-74
2023/02/21 02:48:58;;;;;;;3.38;3.08;;;9.30;99.90;;;;;;6066607;23;20018;-74
2023/02/21 02:51:25;;;;;;;3.00;2.80;;;9.30;99.90;;;;;;6042358;23;20479;-73
2023/02/21 02:53:51;;;;;;;3.20;2.83;;;9.30;99.90;;;;;;6079686;23;20016;-73
2023/02/21 02:56:17;;;;;;;3.45;3.00;;;9.30;99.90;;;;;;6184456;23;20017;-74
2023/02/21 02:58:46;;;;;;;2.97;2.67;;;9.20;99.90;;;;;;6185960;23;20019;-74
2023/02/21 03:01:30;;;;;;;3.40;3.10;;;9.40;99.90;;;;;;6186527;23;20342;-73
2023/02/21 03:03:56;;;;;;;3.63;3.17;;;9.30;99.90;;;;;;6185860;23;20013;-74
2023/02/21 03:07:12;;;;;;;3.35;3.05;;;9.30;99.90;;;;;;6186262;23;20047;-74
2023/02/21 03:09:59;;;;;;;3.25;2.95;;;9.40;99.90;;;;;;6122138;23;20017;-74
2023/02/21 03:12:50;;;;;;;3.72;3.20;;;9.30;99.90;;;;;;6184737;23;20024;-74
2023/02/21 03:15:33;;;;;;;3.45;3.13;;;9.30;99.90;;;;;;6184400;23;20023;-74
2023/02/21 03:18:09;;;;;;;3.25;2.95;;;9.30;99.90;;;;;;6186270;23;20017;-74
2023/02/21 03:20:36;;;;;;;3.70;3.25;;;9.20;99.90;;;;;;6159571;23;20442;-73
2023/02/21 03:23:04;;;;;;;3.63;3.33;;;9.20;99.90;;;;;;6185869;23;20028;-74
2023/02/21 03:25:31;;;;;;;3.58;3.25;;;9.30;99.90;;;;;;6184634;23;20017;-74
2023/02/21 03:28:00;;;;;;;3.47;3.10;;;9.20;99.90;;;;;;6186149;23;20068;-74
2023/02/21 03:30:28;;;;;;;3.25;2.95;;;9.20;99.90;;;;;;6185688;23;20017;-73
2023/02/21 03:32:54;;;;;;;3.80;3.38;;;9.20;99.90;;;;;;6185703;23;20508;-74
2023/02/21 03:35:21;;;;;;;3.60;3.30;;;9.20;99.90;;;;;;6186039;23;20043;-74
2023/02/21 03:37:51;;;;;;;4.15;3.70;;;9.30;99.90;;;;;;6159311;23;20088;-74
2023/02/21 03:40:24;;;;;;;3.40;3.10;;;9.20;99.90;;;;;;6184938;23;20071;-74
2023/02/21 03:42:51;;;;;;;3.80;3.40;;;9.30;99.90;;;;;;6188074;23;20080;-74
2023/02/21 03:45:17;;;;;;;3.47;3.17;;;9.30;99.90;;;;;;6188230;23;20009;-74
2023/02/21 03:47:42;;;;;;;3.65;3.30;;;9.20;99.90;;;;;;6186127;23;20013;-74
2023/02/21 03:50:08;;;;;;;3.53;3.03;;;9.40;99.90;;;;;;6161420;23;20337;-74
2023/02/21 03:52:34;;;;;;;3.65;3.28;;;9.20;99.90;;;;;;6187157;23;20039;-74
2023/02/21 03:55:00;;;;;;;3.75;3.40;;;9.40;99.90;;;;;;6186175;23;20013;-73
2023/02/21 03:57:25;;;;;;;3.70;3.40;;;9.40;99.90;;;;;;6188082;23;20013;-73
2023/02/21 03:59:51;;;;;;;3.70;3.30;;;9.30;99.90;;;;;;6188225;23;20072;-73
2023/02/21 04:02:18;;;;;;;3.90;3.50;;;9.40;99.90;;;;;;6187752;23;20020;-74
2023/02/21 04:04:44;;;;;;;3.67;3.38;;;9.20;99.90;;;;;;6188076;23;20063;-74
2023/02/21 04:07:10;;;;;;;3.65;3.30;;;9.30;99.90;;;;;;6187971;23;20015;-73
2023/02/21 04:09:37;;;;;;;3.60;3.30;;;9.30;99.90;;;;;;6186120;23;20021;-73
2023/02/21 04:12:03;;;;;;;4.13;3.72;;;9.30;99.90;;;;;;6187509;23;20419;-73
2023/02/21 04:14:29;;;;;;;4.18;3.78;;;9.20;99.90;;;;;;6187653;23;20017;-73
2023/02/21 04:16:55;;;;;;;4.20;3.65;;;9.30;99.90;;;;;;6187382;23;20017;-73
2023/02/21 04:19:20;;;;;;;4.05;3.72;;;9.30;99.90;;;;;;6186006;23;20009;-73
2023/02/21 04:21:46;;;;;;;3.92;3.55;;;9.20;99.90;;;;;;6187764;23;20335;-73
2023/02/21 04:24:12;;;;;;;3.88;3.58;;;9.20;99.90;;;;;;6187786;23;20499;-74
2023/02/21 04:26:37;;;;;;;4.10;3.70;;;9.30;99.90;;;;;;6187707;23;20044;-74
2023/02/21 04:29:03;;;;;;;3.85;3.53;;;9.30;99.90;;;;;;6185856;23;20017;-74
2023/02/21 04:31:29;;;;;;;4.22;3.83;;;9.20;99.90;;;;;;6187640;23;20013;-74
2023/02/21 04:33:55;;;;;;;3.80;3.50;;;9.20;99.90;;;;;;6187641;23;20016;-74
2023/02/21 04:36:20;;;;;;;4.25;3.85;;;9.40;99.90;;;;;;6187172;23;20463;-74
2023/02/21 04:38:46;;;;;;;4.40;4.00;;;9.30;99.90;;;;;;6185731;23;20020;-74
2023/02/21 04:41:11;;;;;;;5.18;3.90;;;9.20;99.90;;;;;;6185752;23;20009;-74
2023/02/21 04:43:37;;;;;;;4.53;4.13;;;9.20;99.90;;;;;;6187391;23;20287;-74
2023/02/21 04:46:03;;;;;;;4.47;4.07;;;9.30;99.90;;;;;;6186448;23;20330;-74
2023/02/21 04:48:28;;;;;;;5.07;4.57;;;9.30;99.90;;;;;;6187281;23;20028;-74
2023/02/21 04:50:54;;;;;;;5.40;4.95;;;9.30;99.90;;;;;;6187304;23;20009;-74
2023/02/21 04:53:20;;;;;;;5.90;5.40;;;9.30;99.90;;;;;;6185410;23;20374;-74
2023/02/21 04:55:45;;;;;;;5.53;5.03;;;9.40;99.90;;;;;;6185693;23;20020;-73
2023/02/21 04:58:11;;;;;;;5.32;4.85;;;9.50;99.90;;;;;;6185514;23;20431;-73
2023/02/21 05:00:36;;;;;;;5.65;5.15;;;9.50;99.90;;;;;;6185600;23;20024;-73
2023/02/21 05:03:02;;;;;;;6.47;5.97;;;9.50;99.90;;;;;;6185408;23;20446;-73
2023/02/21 05:05:28;;;;;;;6.50;5.85;;;9.40;99.90;;;;;;6185376;23;20024;-74
2023/02/21 05:07:54;;;;;;;6.20;5.60;;;9.30;99.90;;;;;;6185850;23;20370;-74
2023/02/21 05:10:19;;;;;;;6.22;5.63;;;9.40;99.90;;;;;;6185318;23;20013;-74
2023/02/21 05:12:45;;;;;;;6.43;5.82;;;9.40;99.90;;;;;;6187236;23;20055;-74
2023/02/21 05:15:12;;;;;;;6.68;6.07;;;9.40;99.90;;;;;;6187349;23;20013;-74
2023/02/21 05:17:38;;;;;;;6.13;5.53;;;9.30;99.90;;;;;;6185365;23;20473;-73
2023/02/21 05:20:06;;;;;;;6.75;6.15;;;9.30;99.90;;;;;;6185855;23;20013;-74
2023/02/21 05:22:33;;;;;;;6.88;6.18;;;9.20;99.90;;;;;;6185501;23;20017;-74
2023/02/21 05:24:58;;;;;;;6.95;6.35;;;9.30;99.90;;;;;;6185495;23;20009;-74
2023/02/21 05:27:24;;;;;;;6.55;5.95;;;9.20;99.90;;;;;;6160927;23;20091;-74
2023/02/21 05:29:52;;;;;;;7.07;6.47;;;9.30;99.90;;;;;;6185473;23;20341;-74
2023/02/21 05:32:19;;;;;;;7.82;6.65;;;9.20;99.90;;;;;;6187952;23;20068;-73
2023/02/21 05:34:46;;;;;;;7.47;6.40;;;9.20;99.90;;;;;;6187333;23;20013;-72
2023/02/21 05:37:16;;;;;;;7.25;6.55;;;9.20;99.90;;;;;;6185363;23;20013;-71
2023/02/21 05:39:42;;;;;;;;;;;9.30;99.90;;;;;;6187812;23;20005;-73
2023/02/21 05:42:08;;;;;;;6.88;6.25;;;9.20;99.90;;;;;;6186813;23;19935;-72
2023/02/21 05:44:34;;;;;;;6.75;6.15;;;9.10;99.90;;;;;;6187443;23;20017;-71
2023/02/21 05:47:01;;;;;;;6.90;6.30;;;9.10;99.90;;;;;;6185116;23;20501;-72
2023/02/21 05:49:27;;;;;;;7.03;6.43;;;9.10;99.90;;;;;;6186947;23;20067;-72
2023/02/21 05:51:53;;;;;;;6.95;6.28;;;9.10;99.90;;;;;;6186867;23;20009;-71
2023/02/21 05:54:20;;;;;;;6.93;6.38;;;9.30;99.90;;;;;;6186492;23;20013;-71
2023/02/21 05:56:47;;;;;;;6.25;5.75;;;9.30;99.90;;;;;;6184975;23;20024;-72
2023/02/21 05:59:15;;;;;;;6.43;5.82;;;9.10;99.90;;;;;;6186445;23;20009;-71
2023/02/21 06:01:41;;;;;;;6.70;6.20;;;9.20;99.90;;;;;;6186110;23;20059;-71
2023/02/21 06:04:07;;;;;;;6.47;5.88;;;9.20;99.90;;;;;;6186608;23;20009;-71
2023/02/21 06:06:34;;;;;;;6.47;5.93;;;9.30;99.90;;;;;;6184829;23;20359;-72
2023/02/21 06:09:00;;;;;;;6.90;6.25;;;9.20;99.90;;;;;;6184903;23;20017;-72
2023/02/21 06:11:29;;;;;;;6.88;6.28;;;9.20;99.90;;;;;;6186744;23;20443;-72
2023/02/21 06:13:56;;;;;;;5.93;5.47;;;9.20;99.90;;;;;;6184876;23;20477;-72
2023/02/21 06:16:22;;;;;;;6.47;5.88;;;9.20;99.90;;;;;;6184954;23;20275;-72
2023/02/21 06:18:55;;;;;;;6.40;5.90;;;9.20;99.90;;;;;;6184726;23;20028;-72
2023/02/21 06:21:21;;;;;;;6.38;5.85;;;9.20;99.90;;;;;;6184676;23;20009;-74
2023/02/21 06:23:47;;;;;;;6.43;5.93;;;9.30;99.90;;;;;;6186712;23;20060;-73
2023/02/21 06:26:14;;;;;;;6.70;6.10;;;9.40;99.90;;;;;;6159937;23;20017;-73
2023/02/21 06:28:40;;;;;;;7.28;6.65;;;9.40;99.90;;;;;;6184750;23;20100;-73
2023/02/21 06:31:06;;;;;;;7.15;6.55;;;9.40;99.90;;;;;;6186290;23;20424;-74
2023/02/21 06:33:32;;;;;;;6.55;6.05;;;9.30;99.90;;;;;;6186450;23;20025;-74
2023/02/21 06:35:57;;;;;;;6.50;6.00;;;9.20;99.90;;;;;;6159752;23;20017;-74
2023/02/21 06:38:23;;;;;;;6.50;6.00;;;9.20;99.90;;;;;;6186503;23;20013;-74
2023/02/21 06:40:49;;;;;;;6.07;5.57;;;9.40;99.90;;;;;;6186458;23;20013;-73
2023/02/21 06:43:14;;;;;;;7.10;6.50;;;9.30;99.90;;;;;;6184561;23;20040;-73
2023/02/21 06:45:40;;;;;;;6.03;5.53;;;9.20;99.90;;;;;;6184697;23;20048;-74
2023/02/21 06:48:07;;;;;;;6.78;6.20;;;9.20;99.90;;;;;;6186124;23;20020;-73
2023/02/21 06:50:33;;;;;;;6.60;6.10;;;9.20;99.90;;;;;;6184505;23;20382;-72
2023/02/21 06:52:59;;;;;;;7.15;6.55;;;9.20;99.90;;;;;;6186462;23;20021;-72
2023/02/21 06:55:25;;;;;;;6.95;6.35;;;9.10;99.90;;;;;;6184355;23;20091;-72
2023/02/21 06:57:51;;;;;;;7.47;6.88;;;9.20;99.90;;;;;;6184409;23;20017;-72
2023/02/21 07:00:17;;;;;;;6.65;6.05;;;9.10;99.90;;;;;;6184380;23;20426;-72
2023/02/21 07:02:43;;;;;;;6.72;6.13;;;9.20;99.90;;;;;;6184383;23;20450;-72
2023/02/21 07:05:09;;;;;;;6.05;5.65;;;9.20;99.90;;;;;;6159554;23;20088;-72
2023/02/21 07:07:35;;;;;;;6.30;5.80;;;9.20;99.90;;;;;;6184484;23;20021;-72
2023/02/21 07:10:01;;;;;;;5.90;5.40;;;9.20;99.90;;;;;;6186255;23;20009;-72
2023/02/21 07:12:26;;;;;;;5.88;5.47;;;9.30;99.90;;;;;;6184340;23;20505;-72
2023/02/21 07:14:53;;;;;;;6.65;6.15;;;9.20;99.90;;;;;;6185974;23;20368;-73
2023/02/21 07:17:19;;;;;;;7.18;6.60;;;9.20;99.90;;;;;;6184348;23;20338;-78
2023/02/21 07:19:45;;;;;;;7.07;6.47;;;9.30;99.90;;;;;;6184417;23;20465;-73
2023/02/21 07:22:10;;;;;;;6.47;5.97;;;9.30;99.90;;;;;;6184218;23;20013;-73
2023/02/21 07:24:36;;;;;;;6.53;6.03;;;9.40;99.90;;;;;;6186266;23;20088;-72
2023/02/21 07:27:02;;;;;;;6.57;6.07;;;9.30;99.90;;;;;;6184282;23;20442;-72
2023/02/21 07:29:28;;;;;;;6.65;6.15;;;9.40;99.90;;;;;;6184066;23;20013;-70
2023/02/21 07:31:54;;;;;;;6.55;6.05;;;9.20;99.90;;;;;;6184465;23;20064;-71
2023/02/21 07:34:21;;;;;;;6.25;5.78;;;9.30;99.90;;;;;;6184734;23;20140;-73
2023/02/21 07:36:46;;;;;;;6.85;6.28;;;9.20;99.90;;;;;;6186019;23;20033;-73
2023/02/21 07:39:12;;;;;;;6.93;6.32;;;9.20;99.90;;;;;;6185687;23;20434;-73
2023/02/21 07:41:38;;;;;;;7.47;6.88;;;9.20;99.90;;;;;;6186002;23;20009;-73
2023/02/21 07:44:03;;;;;;;7.10;6.60;;;9.20;99.90;;;;;;6186150;23;20013;-71
2023/02/21 07:46:29;;;;;;;7.10;6.53;;;9.30;99.90;;;;;;6184214;23;20064;-72
2023/02/21 07:48:55;;;;;;;6.80;6.28;;;9.30;99.90;;;;;;6184618;23;20334;-71
2023/02/21 07:51:21;;;;;;;7.47;6.88;;;9.10;99.90;;;;;;6185592;23;20017;-71
2023/02/21 07:53:46;;;;;;;7.82;7.22;;;9.30;99.90;;;;;;6184158;23;20017;-72
2023/02/21 07:56:12;;;;;;;7.65;7.03;;;9.20;99.90;;;;;;6185907;23;20049;-72
2023/02/21 07:58:38;;;;;;;7.25;6.68;;;9.20;99.90;;;;;;6185727;23;20009;-71
2023/02/21 08:01:05;;;;;;;7.90;7.20;;;9.30;99.90;;;;;;6184386;23;20017;-71
2023/02/21 08:03:31;;;;;;;8.15;7.45;;;9.20;99.90;;;;;;6186055;23;20011;-72
2023/02/21 08:06:00;;;;;;;8.07;7.40;;;9.40;99.90;;;;;;6185715;23;20071;-72
2023/02/21 08:08:25;;;;;;;8.35;7.55;;;9.20;99.90;;;;;;6184050;23;20020;-71
2023/02/21 08:10:51;;;;;;;7.82;7.30;;;9.40;99.90;;;;;;6184155;23;20017;-72
2023/02/21 08:13:17;;;;;;;8.30;7.63;;;9.30;99.90;;;;;;6185916;23;20342;-72
2023/02/21 08:15:42;;;;;;;7.20;6.60;;;9.40;99.90;;;;;;6185918;23;20009;-72
2023/02/21 08:18:23;;;;;;;8.45;7.65;;;9.40;99.90;;;;;;6184382;23;20075;-72
2023/02/21 08:20:52;;;;;;;7.93;7.32;;;9.50;99.90;;;;;;6186534;23;20064;-71
2023/02/21 08:23:19;;;;;;;8.38;7.68;;;9.40;99.90;;;;;;6185909;23;20020;-71
2023/02/21 08:25:46;;;;;;;7.65;7.07;;;9.50;99.90;;;;;;6185774;23;20020;-72
2023/02/21 08:28:12;;;;;;;8.02;7.32;;;9.50;99.90;;;;;;6185829;23;20048;-71
2023/02/21 08:30:38;;;;;;;7.80;7.20;;;9.40;99.90;;;;;;6185650;23;20013;-71
2023/02/21 08:33:03;;;;;;;7.93;7.22;;;9.50;99.90;;;;;;6187595;23;20376;-71
2023/02/21 08:35:29;;;;;;;7.32;6.78;;;9.50;99.90;;;;;;6185694;23;20021;-72
2023/02/21 08:38:01;;;;;;;7.47;6.85;;;9.50;99.90;;;;;;6185664;23;20470;-72
2023/02/21 08:40:31;;;;;;;7.68;7.07;;;9.40;99.90;;;;;;6185723;23;20013;-72
2023/02/21 08:42:58;;;;;;;7.05;6.45;;;9.60;99.90;;;;;;6185627;23;20021;-71
2023/02/21 08:45:25;;;;;;;7.18;6.55;;;9.50;99.90;;;;;;6160990;23;20020;-71
2023/02/21 08:47:51;;;;;;;7.05;6.45;;;9.50;99.90;;;;;;6161060;23;20335;-72
2023/02/21 08:50:19;;;;;;;7.07;6.50;;;9.50;99.90;;;;;;6185771;23;20024;-71
2023/02/21 08:52:46;;;;;;;6.70;6.20;;;9.60;99.90;;;;;;6185911;23;20517;-71
2023/02/21 08:55:12;;;;;;;6.85;6.32;;;9.50;99.90;;;;;;6186074;23;20017;-72
2023/02/21 08:57:37;;;;;;;7.70;7.00;;;9.50;99.90;;;;;;6186922;23;20435;-71
2023/02/21 09:00:11;;;;;;;7.50;6.80;;;9.60;99.90;;;;;;6187570;23;20024;-71
2023/02/21 09:02:39;;;;;;;7.07;6.57;;;9.50;99.90;;;;;;6187513;23;20076;-71
2023/02/21 09:05:29;;;;;;;7.20;6.60;;;9.60;99.90;;;;;;6187393;23;20005;-71
2023/02/21 09:08:00;;;;;;;6.95;6.45;;;9.70;99.90;;;;;;6184964;23;20063;-71
2023/02/21 09:10:32;;;;;;;7.30;6.80;;;9.50;99.90;;;;;;6185518;23;20435;-71
2023/02/21 09:12:59;;;;;;;8.30;7.60;;;9.50;99.90;;;;;;6185897;23;20009;-71
2023/02/21 09:15:24;;;;;;;7.60;7.00;;;9.60;99.90;;;;;;6185565;23;20015;-71
2023/02/21 09:17:53;;;;;;;7.82;7.22;;;9.50;99.90;;;;;;6185410;23;20088;-73
2023/02/21 09:20:22;;;;;;;8.25;7.65;;;9.70;99.90;;;;;;6186073;23;20059;-72
2023/02/21 09:22:48;;;;;;;7.82;7.22;;;9.60;99.90;;;;;;6185903;23;20009;-69
2023/02/21 09:25:17;;;;;;;7.30;6.70;;;9.70;99.90;;;;;;6187080;23;20048;-72
2023/02/21 09:27:43;;;;;;;7.20;6.60;;;9.60;99.90;;;;;;6187424;23;20009;-71
2023/02/21 09:30:15;;;;;;;7.20;6.70;;;9.60;99.90;;;;;;6187089;23;20439;-72
2023/02/21 09:32:40;;;;;;;7.93;7.22;;;9.60;99.90;;;;;;6185517;23;20371;-72
2023/02/21 09:35:07;;;;;;;7.80;7.18;;;9.60;99.90;;;;;;6185390;23;20017;-68
2023/02/21 09:37:41;;;;;;;7.97;7.38;;;9.70;99.90;;;;;;6185000;23;20059;-72
2023/02/21 09:40:33;;;;;;;7.90;7.20;;;9.50;99.90;;;;;;6187108;23;20092;-72
2023/02/21 09:43:00;;;;;;;6.93;6.43;;;9.80;99.90;;;;;;6185280;23;20023;-72
2023/02/21 09:45:32;;;;;;;7.47;6.88;;;9.60;99.90;;;;;;6187223;23;20013;-72
2023/02/21 09:48:01;;;;;;;7.60;7.00;;;9.80;99.90;;;;;;6185184;23;20017;-71
2023/02/21 09:50:32;;;;;;;7.47;6.80;;;9.80;99.90;;;;;;6186916;23;20013;-71
2023/02/21 09:52:59;;;;;;;8.27;7.65;;;9.70;99.90;;;;;;6186524;23;20228;-71
2023/02/21 09:55:35;;;;;;;6.78;6.28;;;9.60;99.90;;;;;;6184937;23;20019;-71
2023/02/21 09:58:01;;;;;;;7.88;7.07;;;9.80;99.90;;;;;;6186545;23;20017;-72
2023/02/21 10:00:36;;;;;;;7.50;6.85;;;9.70;99.90;;;;;;6187040;23;20019;-71
2023/02/21 10:03:04;;;;;;;7.72;7.13;;;9.80;99.90;;;;;;6186834;23;20028;-71
2023/02/21 10:05:52;;;;;;;7.78;7.07;;;9.80;99.90;;;;;;6186838;23;20009;-72
2023/02/21 10:08:36;;;;;;;7.82;7.22;;;10.00;99.90;;;;;;6184884;23;20013;-71
2023/02/21 10:11:43;;;;;;;7.90;7.35;;;9.90;99.90;;;;;;6184883;23;20067;-71
2023/02/21 10:14:28;;;;;;;7.00;6.50;;;9.90;99.90;;;;;;6124777;23;20443;-71
2023/02/21 10:17:19;;;;;;;7.20;6.60;;;10.10;99.90;;;;;;6124812;23;20033;-71
2023/02/21 10:19:52;;;;;;;6.75;6.25;;;10.20;99.90;;;;;;6124659;23;20126;-71
2023/02/21 10:22:23;;;;;;;8.18;7.47;;;10.10;99.90;;;;;;6124723;23;20439;-71
2023/02/21 10:24:49;;;;;;;7.07;6.53;;;10.10;99.90;;;;;;6100119;23;20018;-71
2023/02/21 10:27:20;;;;;;;7.30;6.75;;;10.00;99.90;;;;;;6124553;23;20017;-71
2023/02/21 10:30:07;;;;;;;7.63;7.05;;;10.10;99.90;;;;;;6099734;23;20124;-71
2023/02/21 10:32:33;;;;;;;6.57;6.07;;;10.10;99.90;;;;;;6124875;23;20386;-72
2023/02/21 10:34:59;;;;;;;7.15;6.60;;;10.10;99.90;;;;;;6099997;23;20018;-71
2023/02/21 10:37:41;;;;;;;6.90;6.40;;;10.00;99.90;;;;;;6124340;23;20037;-71
2023/02/21 10:40:09;;;;;;;7.15;6.55;;;10.20;99.90;;;;;;6124510;23;20026;-72
2023/02/21 10:42:41;;;;;;;6.60;6.13;;;10.20;99.90;;;;;;6124452;23;20427;-71
2023/02/21 10:45:08;;;;;;;6.32;5.82;;;10.10;99.90;;;;;;6124580;23;20088;-72
2023/02/21 10:47:52;;;;;;;6.95;6.45;;;10.30;99.90;;;;;;6124561;23;20046;-71
2023/02/21 10:50:36;;;;;;;6.32;5.93;;;10.30;99.90;;;;;;6134652;23;20419;-71
2023/02/21 10:53:03;;;;;;;6.63;6.13;;;10.20;99.90;;;;;;6184593;23;20071;-71
2023/02/21 10:55:28;;;;;;;7.15;6.65;;;10.30;99.90;;;;;;6186343;23;20103;-71
2023/02/21 10:57:57;;;;;;;6.25;5.85;;;10.30;99.90;;;;;;6186403;23;20017;-71
2023/02/21 11:00:33;;;;;;;6.47;5.97;;;10.30;99.90;;;;;;6186157;23;20465;-71
2023/02/21 11:03:05;;;;;;;6.32;5.82;;;10.40;99.90;;;;;;6184598;23;20017;-71
2023/02/21 11:05:31;;;;;;;6.47;6.05;;;10.30;99.90;;;;;;6186460;23;20017;-71
2023/02/21 11:07:58;;;;;;;6.20;5.80;;;10.30;99.90;;;;;;6185877;23;20335;-71
2023/02/21 11:10:54;;;;;;;6.60;6.10;;;10.30;99.90;;;;;;6184399;23;20013;-71
2023/02/21 11:13:21;;;;;;;7.00;6.40;;;10.30;99.90;;;;;;6172877;23;20063;-71
2023/02/21 11:15:48;;;;;;;7.38;6.78;;;10.30;99.90;;;;;;6184464;23;20017;-71
2023/02/21 11:18:24;;;;;;;7.05;6.55;;;10.30;99.90;;;;;;6185899;23;20084;-71
2023/02/21 11:20:52;;;;;;;8.43;7.82;;;10.30;99.90;;;;;;6186250;23;20013;-71
2023/02/21 11:23:24;;;;;;;7.65;7.10;;;10.30;99.90;;;;;;6187094;23;20075;-71
2023/02/21 11:25:57;;;;;;;7.60;7.00;;;10.20;99.90;;;;;;6186169;23;20080;-71
2023/02/21 11:28:23;;;;;;;7.78;7.18;;;10.20;99.90;;;;;;6184276;23;20017;-70
2023/02/21 11:31:02;;;;;;;7.30;6.80;;;10.40;99.90;;;;;;6185928;23;20013;-71
2023/02/21 11:33:29;;;;;;;7.40;6.80;;;10.20;99.90;;;;;;6159459;23;20017;-71
2023/02/21 11:36:14;;;;;;;7.32;6.82;;;10.30;99.90;;;;;;6184233;23;20017;-71
2023/02/21 11:38:57;;;;;;;7.63;7.03;;;10.30;99.90;;;;;;6184271;23;20446;-72
2023/02/21 11:41:45;;;;;;;7.13;6.63;;;10.40;99.90;;;;;;6186145;23;20380;-71
2023/02/21 11:44:25;;;;;;;7.32;6.72;;;10.30;99.90;;;;;;6175797;23;20447;-71
2023/02/21 11:47:03;;;;;;;6.45;6.05;;;10.30;99.90;;;;;;6184277;23;20071;-71
2023/02/21 11:49:42;;;;;;;7.40;6.90;;;10.20;99.90;;;;;;6184146;23;20454;-71
2023/02/21 11:52:13;;;;;;;7.60;7.10;;;10.20;99.90;;;;;;6186032;23;20083;-70
2023/02/21 11:54:39;;;;;;;7.95;7.35;;;10.30;99.90;;;;;;6184129;23;20088;-71
2023/02/21 11:57:20;;;;;;;7.80;7.20;;;10.10;99.90;;;;;;6185920;23;20071;-71
2023/02/21 12:00:01;;;;;;;7.97;7.38;;;10.10;99.90;;;;;;6184193;23;20361;-71
2023/02/21 12:02:33;;;;;;;8.63;7.93;;;10.20;99.90;;;;;;6187921;23;20377;-71
2023/02/21 12:05:27;;;;;;;9.05;8.35;;;10.20;99.90;;;;;;6186087;23;20017;-71
2023/02/21 12:08:31;;;;;;;8.48;7.88;;;10.10;99.90;;;;;;6188055;23;20051;-71
2023/02/21 12:11:14;;;;;;;8.88;8.07;;;10.20;99.90;;;;;;6187919;23;20023;-71
2023/02/21 12:14:12;;;;;;;8.18;7.50;;;10.00;99.90;;;;;;6187973;23;20072;-71
2023/02/21 12:16:52;;;;;;;6.22;5.82;;;10.00;99.90;;;;;;6187565;23;20053;-71
2023/02/21 12:19:38;;;;;;;7.82;7.22;;;10.10;99.90;;;;;;6187499;23;20059;-71
2023/02/21 12:22:17;;;;;;;8.70;8.00;;;10.10;99.90;;;;;;6185992;23;20023;-71
2023/02/21 12:24:59;;;;;;;8.32;7.70;;;10.00;99.90;;;;;;6187808;23;20013;-71
2023/02/21 12:27:52;;;;;;;8.73;8.02;;;10.20;99.90;;;;;;6185913;23;20012;-71
2023/02/21 12:30:25;;;;;;;9.75;8.95;;;9.90;99.90;;;;;;6187382;23;20013;-71
2023/02/21 12:33:15;;;;;;;9.57;8.77;;;10.00;99.90;;;;;;6187721;23;20021;-71
2023/02/21 12:36:01;;;;;;;10.25;9.35;;;9.80;99.90;;;;;;6185638;23;20017;-71
2023/02/21 12:38:39;;;;;;;10.05;9.15;;;10.00;99.90;;;;;;6188214;23;20021;-71
2023/02/21 12:41:22;;;;;;;10.10;9.30;;;9.80;99.90;;;;;;6185878;23;20013;-71
2023/02/21 12:43:48;;;;;;;10.63;9.70;;;9.90;99.90;;;;;;6187127;23;20013;-71
2023/02/21 12:46:27;;;;;;;10.30;9.40;;;9.80;99.90;;;;;;6161078;23;20024;-71
2023/02/21 12:49:28;;;;;;;12.88;11.57;;;9.90;99.90;;;;;;6187706;23;20018;-71
2023/02/21 12:52:14;;;;;;;10.35;9.55;;;9.90;99.90;;;;;;6188165;23;20117;-71
2023/02/21 12:54:59;;;;;;;10.55;9.57;;;9.90;99.90;;;;;;6187645;23;20013;-71
2023/02/21 12:58:04;;;;;;;10.05;9.18;;;9.90;99.90;;;;;;6187431;23;20009;-71
2023/02/21 13:00:42;;;;;;;9.57;8.77;;;10.00;99.90;;;;;;6184442;23;20017;-71
2023/02/21 13:03:29;;;;;;;10.20;9.30;;;10.00;99.90;;;;;;6187496;23;20009;-71
2023/02/21 13:06:01;;;;;;;9.35;8.65;;;9.90;99.90;;;;;;6186392;23;20140;-71
2023/02/21 13:08:44;;;;;;;9.70;8.90;;;10.10;99.90;;;;;;6187533;23;20013;-71
2023/02/21 13:11:21;;;;;;;9.02;8.25;;;10.00;99.90;;;;;;6187612;23;20005;-72
2023/02/21 13:13:46;;;;;;;8.23;7.63;;;10.00;99.90;;;;;;6185001;23;20105;-71
2023/02/21 13:16:14;;;;;;;7.28;6.70;;;10.10;99.90;;;;;;6185603;23;20040;-71
2023/02/21 13:18:58;;;;;;;6.13;5.72;;;10.00;99.90;;;;;;6187426;23;20064;-71
2023/02/21 13:21:38;;;;;;;4.97;4.68;;;9.90;99.90;;;;;;6185645;23;20008;-71
2023/02/21 13:24:40;;;;;;;5.15;4.80;;;10.10;99.90;;;;;;6187351;23;20071;-71
2023/02/21 13:27:27;;;;;;;5.45;5.05;;;10.10;99.90;;;;;;6187821;23;20040;-71
2023/02/21 13:30:10;;;;;;;5.07;4.68;;;10.10;99.90;;;;;;6187189;23;20017;-71
2023/02/21 13:32:48;;;;;;;5.05;4.65;;;10.10;99.90;;;;;;6186894;23;20021;-71
2023/02/21 13:35:20;;;;;;;4.35;4.05;;;10.10;99.90;;;;;;6187255;23;20009;-71
2023/02/21 13:37:49;;;;;;;3.42;3.22;;;10.20;99.90;;;;;;6186779;23;20496;-73
2023/02/21 13:40:22;;;;;;;3.50;3.30;;;10.10;99.90;;;;;;6185306;23;20043;-71
2023/02/21 13:42:59;;;;;;;2.90;2.70;;;10.10;99.90;;;;;;6187092;23;20009;-71
2023/02/21 13:45:25;;;;;;;3.42;3.22;;;10.10;99.90;;;;;;6185665;23;20009;-70
2023/02/21 13:47:57;;;;;;;3.92;3.72;;;10.00;99.90;;;;;;6185229;23;20012;-70
2023/02/21 13:50:37;;;;;;;4.35;4.05;;;9.90;99.90;;;;;;6185153;23;20071;-70
2023/02/21 13:53:21;;;;;;;3.40;3.20;;;10.10;99.90;;;;;;6186975;23;20089;-71
2023/02/21 13:55:59;;;;;;;3.00;2.80;;;9.90;99.90;;;;;;6184947;23;20446;-70
2023/02/21 13:58:33;;;;;;;3.20;3.00;;;9.90;99.90;;;;;;6186912;23;20013;-71
2023/02/21 14:01:37;;;;;;;3.45;3.25;;;9.90;99.90;;;;;;6185043;23;20017;-70
2023/02/21 14:04:41;;;;;;;3.40;3.20;;;10.00;99.90;;;;;;6184953;23;20025;-70
2023/02/21 14:07:07;;;;;;;3.28;3.08;;;9.90;99.90;;;;;;6184777;23;20053;-70
2023/02/21 14:09:39;;;;;;;3.60;3.40;;;10.10;99.90;;;;;;6159986;23;20027;-70
2023/02/21 14:12:05;;;;;;;3.10;2.90;;;10.10;99.90;;;;;;6185327;23;20017;-70
2023/02/21 14:14:38;;;;;;;3.60;3.40;;;9.90;99.90;;;;;;6184809;23;20013;-70
2023/02/21 14:17:12;;;;;;;3.50;3.30;;;10.00;99.90;;;;;;6184851;23;20035;-70
2023/02/21 14:19:38;;;;;;;3.92;3.63;;;10.10;99.90;;;;;;6185760;23;20013;-70
2023/02/21 14:22:12;;;;;;;3.97;3.67;;;10.00;99.90;;;;;;6186311;23;20015;-71
2023/02/21 14:24:47;;;;;;;3.38;3.17;;;10.00;99.90;;;;;;6186562;23;20009;-71
2023/02/21 14:27:12;;;;;;;3.30;3.10;;;10.10;99.90;;;;;;6187123;23;20032;-70
2023/02/21 14:29:42;;;;;;;3.25;3.05;;;9.90;99.90;;;;;;6186761;23;20342;-71
2023/02/21 14:32:07;;;;;;;2.60;2.50;;;10.00;99.90;;;;;;6186839;23;20025;-71
2023/02/21 14:34:56;;;;;;;2.50;2.40;;;9.80;99.90;;;;;;6186302;23;20048;-71
2023/02/21 14:37:39;;;;;;;2.50;2.40;;;9.90;99.90;;;;;;6184737;23;20024;-71
2023/02/21 14:40:13;;;;;;;2.90;2.70;;;9.90;99.90;;;;;;6184745;23;20013;-70
2023/02/21 14:42:47;;;;;;;3.05;2.85;;;9.90;99.90;;;;;;6186627;23;20088;-71
2023/02/21 14:45:38;;;;;;;2.40;2.30;;;9.90;99.90;;;;;;6187427;23;20031;-71
2023/02/21 14:48:34;;;;;;;2.28;2.17;;;9.90;99.90;;;;;;6186676;23;20041;-72
2023/02/21 14:51:27;;;;;;;2.53;2.42;;;9.70;99.90;;;;;;6186203;23;20452;-71
2023/02/21 14:54:26;;;;;;;2.70;2.50;;;9.80;99.90;;;;;;6185456;23;20017;-71
2023/02/21 14:57:11;;;;;;;3.03;2.83;;;9.70;99.90;;;;;;6159862;23;20047;-72
2023/02/21 14:59:58;;;;;;;2.38;2.28;;;9.90;99.90;;;;;;6184615;23;20378;-72
2023/02/21 15:02:53;;;;;;;2.50;2.40;;;9.90;99.90;;;;;;6186595;23;20013;-71
2023/02/21 15:05:34;;;;;;;2.10;2.00;;;9.70;99.90;;;;;;6099967;23;20017;-71
2023/02/21 15:08:23;;;;;;;1.95;1.85;;;9.70;99.90;;;;;;6100821;23;20017;-72
2023/02/21 15:10:51;;;;;;;2.17;2.08;;;9.70;99.90;;;;;;6124592;23;20013;-71
2023/02/21 15:13:29;;;;;;;2.05;1.95;;;9.60;99.90;;;;;;6124294;23;20108;-72
2023/02/21 15:16:02;;;;;;;1.77;1.67;;;9.80;99.90;;;;;;6124434;23;20042;-72
2023/02/21 15:18:30;;;;;;;2.53;2.40;;;9.70;99.90;;;;;;6124253;23;20092;-71
2023/02/21 15:21:11;;;;;;;2.10;2.00;;;9.70;99.90;;;;;;6124817;23;20010;-71
2023/02/21 15:23:45;;;;;;;1.98;1.88;;;9.60;99.90;;;;;;6076016;23;20463;-72
2023/02/21 15:26:21;;;;;;;1.90;1.80;;;9.70;99.90;;;;;;6099594;23;20014;-71
2023/02/21 15:29:04;;;;;;;1.92;1.83;;;9.60;99.90;;;;;;6124190;23;20029;-72
2023/02/21 15:31:35;;;;;;;1.92;1.83;;;9.60;99.90;;;;;;6124089;23;20025;-72
2023/02/21 15:34:01;;;;;;;1.83;1.73;;;9.70;99.90;;;;;;6099695;23;20024;-72
2023/02/21 15:36:29;;;;;;;1.77;1.67;;;9.60;99.90;;;;;;6123804;23;20024;-71
2023/02/21 15:39:10;;;;;;;1.92;1.83;;;9.60;99.90;;;;;;6124129;23;20021;-71